Albemarle Island — C6LU3 — position and weather

sailwx.info

Track history (hours):
 
Tides and Currents Weather Stations Pressure Air Temp Water Temp Dewpoint Dewpoint Depression Visibility Wind Speed Wind Dir Waves Ship Positions

Albemarle Island

Last reported at 2016-Feb-06 12:00 UTC. Time now 2016-Feb-06 23:25 UTC.
Position N 28°06' W 049°24'.

Type: Cargo ship. MMSI: 308511000.

Wind from 090 at 14 knots

Waves 1.0 meters (3 feet), 4 second period

Barometer 1029.0 mb
Air temperature 21.0 ° C
Visibility: greater than 10.8 NM
Dewpoint 18.0 ° C

Date/timePositionNaut miles runAvg speedWind from/ knotsBaromVisibWave heightAir tempDewpointWater temp
2016-Feb-06 12:00N 28°06' W 049°24'20717.3 090 / 141029.010.8 1.021.018.0
2016-Feb-06 00:00N 29°42' W 045°54'10818.0 090 / 161029.010.8 1.020.015.0
2016-Feb-05 18:00N 30°36' W 044°06'10417.4 090 / 161029.010.8 1.021.515.0
2016-Feb-05 12:00N 31°24' W 042°18'20917.4 070 / 161032.010.8 1.518.015.0
2016-Feb-05 00:00N 33°06' W 038°42'21517.9 360 / 141030.0 2.2 0.518.016.0
2016-Feb-04 12:00N 34°48' W 034°54'20417.0 130 / 101029.010.8 0.518.016.0
2016-Feb-04 00:00N 36°24' W 031°12'9516.7 130 / 171030.0 2.2 1.516.014.0
2016-Feb-03 18:19N 37°11' W 029°30'1316.9
2016-Feb-03 17:33N 37°17' W 029°15'1716.8
2016-Feb-03 16:33N 37°25' W 028°57'1716.7
2016-Feb-03 15:34N 37°33' W 028°38'1717.2
2016-Feb-03 14:33N 37°41' W 028°19'1717.1
2016-Feb-03 13:34N 37°50' W 028°00'1717.3
2016-Feb-03 12:34N 37°58' W 027°41'1817.5
2016-Feb-03 11:33N 38°06' W 027°21'1717.3
2016-Feb-03 10:34N 38°14' W 027°02'1717.1
2016-Feb-03 09:33N 38°22' W 026°43'1717.0
2016-Feb-03 08:34N 38°30' W 026°24'1717.4
2016-Feb-03 07:34N 38°39' W 026°04'1717.4
2016-Feb-03 06:34N 38°47' W 025°44'1717.4
2016-Feb-03 05:33N 38°55' W 025°25'1717.3
2016-Feb-03 04:34N 39°03' W 025°05'1717.4
2016-Feb-03 03:34N 39°12' W 024°45'1917.2
2016-Feb-03 02:25N 39°21' W 024°23'  
2016-Jan-30 22:31N 50°32' E 000°07'2020.1
2016-Jan-30 21:33N 50°37' E 000°37'2120.9
2016-Jan-30 20:33N 50°49' E 001°04'2020.4
2016-Jan-30 19:34N 51°02' E 001°29'1919.2
2016-Jan-30 18:33N 51°17' E 001°48'1918.7
2016-Jan-30 17:33N 51°33' E 002°02'1918.6
2016-Jan-30 16:32N 51°46' E 002°24'45413.3
2016-Jan-29 06:28N 57°49' E 010°19'1314.5
2016-Jan-29 05:34N 57°49' E 010°43'1616.0
2016-Jan-29 04:34N 57°39' E 011°06'1716.9
2016-Jan-29 03:33N 57°26' E 011°27'1817.7
2016-Jan-29 02:34N 57°10' E 011°39'111 9.3
2016-Jan-28 14:32N 55°20' E 011°03'1313.3
2016-Jan-28 13:33N 55°07' E 011°03'1414.2
2016-Jan-28 12:33N 54°54' E 010°54'1413.8
2016-Jan-28 11:33N 54°40' E 010°58'1414.3
2016-Jan-28 10:33N 54°33' E 011°19'1414.1
2016-Jan-28 09:33N 54°27' E 011°41'1514.7
2016-Jan-28 08:33N 54°27' E 012°07'1514.8
2016-Jan-28 07:33N 54°39' E 012°21'6516.3
2016-Jan-28 03:33N 55°07' E 014°04'1616.1
2016-Jan-28 02:34N 55°18' E 014°23'1615.8
2016-Jan-28 01:33N 55°30' E 014°42'1615.7
2016-Jan-28 00:33N 55°37' E 015°07'  
Track history (hours):
 
Tides and Currents Weather Stations Pressure Air Temp Water Temp Dewpoint Dewpoint Depression Visibility Wind Speed Wind Dir Waves Ship Positions

Albemarle Island

Last reported at 2016-Feb-06 12:00 UTC. Time now 2016-Feb-06 23:25 UTC.
Position N 28°06' W 049°24'.

Type: Cargo ship. MMSI: 308511000.

Wind from 090 at 14 knots

Waves 1.0 meters (3 feet), 4 second period

Barometer 1029.0 mb
Air temperature 21.0 ° C
Visibility: greater than 10.8 NM
Dewpoint 18.0 ° C

Date/timePositionNaut miles runAvg speedWind from/ knotsBaromVisibWave heightAir tempDewpointWater temp
2016-Feb-06 12:00N 28°06' W 049°24'20717.3 090 / 141029.010.8 1.021.018.0
2016-Feb-06 00:00N 29°42' W 045°54'10818.0 090 / 161029.010.8 1.020.015.0
2016-Feb-05 18:00N 30°36' W 044°06'10417.4 090 / 161029.010.8 1.021.515.0
2016-Feb-05 12:00N 31°24' W 042°18'20917.4 070 / 161032.010.8 1.518.015.0
2016-Feb-05 00:00N 33°06' W 038°42'21517.9 360 / 141030.0 2.2 0.518.016.0
2016-Feb-04 12:00N 34°48' W 034°54'20417.0 130 / 101029.010.8 0.518.016.0
2016-Feb-04 00:00N 36°24' W 031°12'9516.7 130 / 171030.0 2.2 1.516.014.0
2016-Feb-03 18:19N 37°11' W 029°30'1316.9
2016-Feb-03 17:33N 37°17' W 029°15'1716.8
2016-Feb-03 16:33N 37°25' W 028°57'1716.7
2016-Feb-03 15:34N 37°33' W 028°38'1717.2
2016-Feb-03 14:33N 37°41' W 028°19'1717.1
2016-Feb-03 13:34N 37°50' W 028°00'1717.3
2016-Feb-03 12:34N 37°58' W 027°41'1817.5
2016-Feb-03 11:33N 38°06' W 027°21'1717.3
2016-Feb-03 10:34N 38°14' W 027°02'1717.1
2016-Feb-03 09:33N 38°22' W 026°43'1717.0
2016-Feb-03 08:34N 38°30' W 026°24'1717.4
2016-Feb-03 07:34N 38°39' W 026°04'1717.4
2016-Feb-03 06:34N 38°47' W 025°44'1717.4
2016-Feb-03 05:33N 38°55' W 025°25'1717.3
2016-Feb-03 04:34N 39°03' W 025°05'1717.4
2016-Feb-03 03:34N 39°12' W 024°45'1917.2
2016-Feb-03 02:25N 39°21' W 024°23'  
2016-Jan-30 22:31N 50°32' E 000°07'2020.1
2016-Jan-30 21:33N 50°37' E 000°37'2120.9
2016-Jan-30 20:33N 50°49' E 001°04'2020.4
2016-Jan-30 19:34N 51°02' E 001°29'1919.2
2016-Jan-30 18:33N 51°17' E 001°48'1918.7
2016-Jan-30 17:33N 51°33' E 002°02'1918.6
2016-Jan-30 16:32N 51°46' E 002°24'45413.3
2016-Jan-29 06:28N 57°49' E 010°19'1314.5
2016-Jan-29 05:34N 57°49' E 010°43'1616.0
2016-Jan-29 04:34N 57°39' E 011°06'1716.9
2016-Jan-29 03:33N 57°26' E 011°27'1817.7
2016-Jan-29 02:34N 57°10' E 011°39'111 9.3
2016-Jan-28 14:32N 55°20' E 011°03'1313.3
2016-Jan-28 13:33N 55°07' E 011°03'1414.2
2016-Jan-28 12:33N 54°54' E 010°54'1413.8
2016-Jan-28 11:33N 54°40' E 010°58'1414.3
2016-Jan-28 10:33N 54°33' E 011°19'1414.1
2016-Jan-28 09:33N 54°27' E 011°41'1514.7
2016-Jan-28 08:33N 54°27' E 012°07'1514.8
2016-Jan-28 07:33N 54°39' E 012°21'6516.3
2016-Jan-28 03:33N 55°07' E 014°04'1616.1
2016-Jan-28 02:34N 55°18' E 014°23'1615.8
2016-Jan-28 01:33N 55°30' E 014°42'1615.7
2016-Jan-28 00:33N 55°37' E 015°07'  

Dump ship's entire track history